Time;durP1;ratioP1;P1;durP2;ratioP2;P2;SDS_P1;SDS_P2;PMS_P1;PMS_P2;Temp;Humidity;BMP_temperature;BMP_pressure;BME280_temperature;BME280_humidity;BME280_pressure;Samples;Min_cycle;Max_cycle;Signal;HPM_P1;HPM_P2
2021/08/04 00:00:12;;;;;;;5.45;4.22;;;15.30;90.60;;;;;;5002107;28;20391;-50
2021/08/04 00:02:38;;;;;;;9.95;4.25;;;15.30;90.50;;;;;;5019820;28;20069;-53
2021/08/04 00:05:04;;;;;;;5.78;3.97;;;15.30;90.60;;;;;;5010257;28;20376;-51
2021/08/04 00:07:31;;;;;;;6.45;4.10;;;15.20;90.60;;;;;;5019405;28;20073;-53
2021/08/04 00:10:00;;;;;;;6.25;4.18;;;15.20;90.70;;;;;;5004167;28;20356;-52
2021/08/04 00:12:26;;;;;;;6.18;3.85;;;15.20;90.70;;;;;;5001925;28;20052;-55
2021/08/04 00:14:57;;;;;;;6.75;4.60;;;15.20;90.80;;;;;;5020311;28;20469;-53
2021/08/04 00:17:23;;;;;;;8.32;4.28;;;15.20;90.80;;;;;;5000494;28;20037;-48
2021/08/04 00:19:50;;;;;;;7.53;4.22;;;15.20;90.80;;;;;;5023400;28;20453;-50
2021/08/04 00:22:17;;;;;;;6.45;4.18;;;15.10;90.80;;;;;;5011520;28;20053;-49
2021/08/04 00:24:44;;;;;;;8.10;4.28;;;15.20;90.90;;;;;;5000629;28;20050;-48
2021/08/04 00:27:10;;;;;;;4.50;3.70;;;15.10;90.90;;;;;;5019814;28;20483;-48
2021/08/04 00:29:36;;;;;;;6.15;4.20;;;15.10;90.90;;;;;;5020559;28;20050;-48
2021/08/04 00:32:01;;;;;;;5.68;4.10;;;15.10;91.00;;;;;;5015519;28;20054;-48
2021/08/04 00:34:29;;;;;;;8.57;3.97;;;15.00;90.90;;;;;;5017738;28;20041;-48
2021/08/04 00:36:55;;;;;;;7.20;4.18;;;15.00;91.00;;;;;;4967540;28;20046;-48
2021/08/04 00:39:24;;;;;;;6.82;3.90;;;15.00;91.10;;;;;;4997307;28;20068;-53
2021/08/04 00:41:53;;;;;;;5.43;4.28;;;14.90;91.20;;;;;;4983233;28;20529;-51
2021/08/04 00:44:21;;;;;;;7.00;4.78;;;14.90;91.30;;;;;;5014674;28;20046;-51
2021/08/04 00:46:47;;;;;;;6.38;4.63;;;14.90;91.40;;;;;;5020590;28;20054;-50
2021/08/04 00:49:14;;;;;;;4.85;3.88;;;14.90;91.50;;;;;;5017564;28;20075;-49
2021/08/04 00:51:40;;;;;;;9.60;4.65;;;14.80;91.30;;;;;;5015750;28;20088;-48
2021/08/04 00:54:07;;;;;;;6.18;4.47;;;14.80;91.40;;;;;;5006715;28;20030;-48
2021/08/04 00:56:34;;;;;;;7.53;4.28;;;14.80;91.70;;;;;;5015014;28;20506;-48
2021/08/04 00:59:02;;;;;;;7.97;4.30;;;14.80;91.50;;;;;;5017374;28;20060;-51
2021/08/04 01:01:53;;;;;;;7.50;4.60;;;14.70;91.60;;;;;;5016745;28;20049;-50
2021/08/04 01:04:23;;;;;;;8.23;4.78;;;14.70;91.70;;;;;;4983714;28;20089;-49
2021/08/04 01:07:28;;;;;;;5.95;4.47;;;14.70;91.90;;;;;;5016484;28;20061;-53
2021/08/04 01:10:27;;;;;;;6.38;4.28;;;14.70;91.80;;;;;;4996304;28;20048;-48
2021/08/04 01:13:02;;;;;;;7.75;4.63;;;14.70;91.80;;;;;;5015034;28;20066;-47
2021/08/04 01:15:35;;;;;;;5.22;4.15;;;14.70;91.90;;;;;;5016550;28;20410;-48
2021/08/04 01:18:12;;;;;;;6.63;4.70;;;14.60;92.10;;;;;;5004181;28;20060;-48
2021/08/04 01:20:41;;;;;;;;;;;14.70;92.20;;;;;;5019036;28;20095;-53
2021/08/04 01:23:32;;;;;;;8.25;4.43;;;14.60;92.00;;;;;;5016726;28;19918;-47
2021/08/04 01:26:11;;;;;;;6.30;4.45;;;14.60;92.00;;;;;;5010909;28;20524;-50
2021/08/04 01:28:40;;;;;;;6.13;4.75;;;14.60;92.10;;;;;;5018946;28;20061;-52
2021/08/04 01:31:10;;;;;;;9.35;4.20;;;14.60;92.00;;;;;;5020258;28;20120;-51
2021/08/04 01:33:39;;;;;;;7.43;4.78;;;14.60;92.00;;;;;;5019762;28;20131;-52
2021/08/04 01:36:08;;;;;;;7.20;4.80;;;14.60;92.00;;;;;;5017740;28;20513;-56
2021/08/04 01:38:34;;;;;;;7.15;4.35;;;14.50;92.00;;;;;;5019364;28;20041;-51
2021/08/04 01:41:04;;;;;;;6.32;5.05;;;14.50;92.00;;;;;;5016414;28;20128;-55
2021/08/04 01:43:31;;;;;;;8.60;4.53;;;14.50;92.20;;;;;;5017797;28;20050;-53
2021/08/04 01:45:59;;;;;;;7.75;4.65;;;14.60;91.80;;;;;;5021233;28;20041;-55
2021/08/04 01:48:25;;;;;;;7.75;4.70;;;14.60;91.70;;;;;;5016388;28;20034;-55
2021/08/04 01:50:58;;;;;;;7.15;4.85;;;14.50;91.80;;;;;;5015324;28;20044;-55
2021/08/04 01:53:30;;;;;;;7.40;5.00;;;14.50;91.80;;;;;;5017302;28;20038;-52
2021/08/04 01:55:57;;;;;;;7.22;4.78;;;14.50;91.80;;;;;;5017484;28;20209;-53
2021/08/04 01:58:22;;;;;;;7.35;4.70;;;14.50;91.90;;;;;;4999166;28;20041;-55
2021/08/04 02:00:48;;;;;;;7.82;4.60;;;14.40;92.10;;;;;;5014218;28;20069;-55
2021/08/04 02:03:14;;;;;;;5.60;4.60;;;14.40;92.00;;;;;;4999809;28;20053;-52
2021/08/04 02:05:40;;;;;;;7.28;4.95;;;14.40;92.00;;;;;;5019401;28;20474;-55
2021/08/04 02:08:09;;;;;;;6.50;4.70;;;14.30;92.20;;;;;;5016774;28;20101;-54
2021/08/04 02:10:38;;;;;;;7.00;4.88;;;14.40;92.10;;;;;;5013513;28;20046;-54
2021/08/04 02:13:19;;;;;;;8.80;4.80;;;14.40;92.20;;;;;;5014888;28;20367;-54
2021/08/04 02:15:56;;;;;;;7.55;4.78;;;14.40;92.20;;;;;;5010726;28;20038;-54
2021/08/04 02:18:30;;;;;;;6.05;4.80;;;14.40;92.00;;;;;;4994781;28;20080;-50
2021/08/04 02:21:00;;;;;;;7.15;4.97;;;14.30;92.20;;;;;;5012177;28;20045;-49
2021/08/04 02:23:31;;;;;;;7.53;4.75;;;14.30;92.10;;;;;;4999536;28;20375;-49
2021/08/04 02:26:18;;;;;;;7.00;4.93;;;14.30;92.20;;;;;;4996526;28;20042;-51
2021/08/04 02:28:49;;;;;;;9.52;4.90;;;14.30;92.20;;;;;;4985137;28;20042;-52
2021/08/04 02:31:16;;;;;;;7.35;4.68;;;14.30;92.20;;;;;;5019464;28;20050;-56
2021/08/04 02:33:43;;;;;;;8.50;4.80;;;14.30;92.30;;;;;;5016045;28;20459;-55
2021/08/04 02:36:14;;;;;;;6.72;4.82;;;14.30;92.20;;;;;;5018038;28;20045;-54
2021/08/04 02:38:40;;;;;;;6.82;4.57;;;14.30;92.20;;;;;;5001581;28;20565;-51
2021/08/04 02:41:07;;;;;;;6.18;4.50;;;14.20;92.30;;;;;;5016768;28;20096;-56
2021/08/04 02:43:37;;;;;;;7.40;4.70;;;14.20;92.40;;;;;;5015548;28;20034;-53
2021/08/04 02:46:14;;;;;;;6.75;4.93;;;14.30;92.20;;;;;;5016860;28;20048;-52
2021/08/04 02:48:40;;;;;;;7.40;4.85;;;14.20;92.10;;;;;;5016655;28;20080;-53
2021/08/04 02:51:10;;;;;;;9.52;4.88;;;14.20;92.40;;;;;;5015533;28;20038;-52
2021/08/04 02:53:36;;;;;;;6.82;4.45;;;14.20;92.30;;;;;;5015898;28;20049;-55
2021/08/04 02:56:04;;;;;;;8.13;5.05;;;14.20;92.40;;;;;;5018358;28;20045;-52
2021/08/04 02:58:36;;;;;;;6.07;4.65;;;14.10;92.40;;;;;;5017955;28;20053;-55
2021/08/04 03:01:13;;;;;;;7.80;4.72;;;14.20;92.30;;;;;;5016327;28;20041;-54
2021/08/04 03:03:39;;;;;;;9.70;5.10;;;14.20;92.20;;;;;;5014805;28;20041;-52
2021/08/04 03:06:10;;;;;;;8.20;5.13;;;14.20;92.40;;;;;;5018453;28;20065;-52
2021/08/04 03:08:37;;;;;;;9.00;5.43;;;14.20;92.40;;;;;;5013432;28;20458;-54
2021/08/04 03:11:07;;;;;;;7.13;5.03;;;14.10;92.40;;;;;;5017682;28;20041;-49
2021/08/04 03:13:33;;;;;;;10.60;5.75;;;14.10;92.40;;;;;;4993590;28;20042;-55
2021/08/04 03:15:59;;;;;;;7.80;5.32;;;14.10;92.60;;;;;;5015289;28;20065;-55
2021/08/04 03:18:25;;;;;;;9.85;5.60;;;14.00;92.60;;;;;;5017502;28;20037;-55
2021/08/04 03:20:51;;;;;;;9.45;5.72;;;14.10;92.70;;;;;;5015034;28;20042;-55
2021/08/04 03:23:16;;;;;;;8.50;5.50;;;14.10;92.60;;;;;;4996444;28;20457;-53
2021/08/04 03:25:42;;;;;;;8.38;5.65;;;14.00;92.60;;;;;;5013804;28;20080;-52
2021/08/04 03:28:07;;;;;;;9.90;6.07;;;14.00;92.70;;;;;;5016370;28;20052;-55
2021/08/04 03:30:33;;;;;;;8.45;5.07;;;14.00;92.70;;;;;;5014180;28;20046;-55
2021/08/04 03:32:59;;;;;;;9.32;5.25;;;14.00;92.70;;;;;;5015796;28;20045;-52
2021/08/04 03:35:24;;;;;;;8.18;5.18;;;13.90;92.70;;;;;;5015779;28;20046;-51
2021/08/04 03:37:52;;;;;;;9.75;4.82;;;13.90;92.70;;;;;;5009976;28;20052;-50
2021/08/04 03:40:17;;;;;;;7.88;5.20;;;13.90;92.80;;;;;;5015249;28;20038;-52
2021/08/04 03:42:44;;;;;;;7.55;5.60;;;13.90;92.80;;;;;;5013434;28;20486;-52
2021/08/04 03:45:13;;;;;;;9.20;5.43;;;13.90;92.80;;;;;;5013930;28;20077;-50
2021/08/04 03:47:40;;;;;;;8.50;5.45;;;13.80;92.90;;;;;;5001115;28;20088;-51
2021/08/04 03:50:09;;;;;;;9.07;5.97;;;13.80;93.00;;;;;;5018107;28;20034;-52
2021/08/04 03:52:35;;;;;;;8.00;5.43;;;13.80;92.90;;;;;;5016819;28;20044;-55
2021/08/04 03:55:05;;;;;;;8.95;5.47;;;13.70;93.10;;;;;;5016627;28;20097;-51
2021/08/04 03:57:31;;;;;;;7.47;5.22;;;13.70;93.10;;;;;;5016335;28;20042;-55
2021/08/04 03:59:56;;;;;;;8.35;5.32;;;13.70;93.20;;;;;;5014483;28;20034;-51
2021/08/04 04:02:22;;;;;;;8.32;5.20;;;13.70;93.40;;;;;;5011954;28;20487;-53
2021/08/04 04:04:51;;;;;;;8.00;5.60;;;13.60;93.40;;;;;;4981447;28;20068;-51
2021/08/04 04:07:16;;;;;;;7.63;5.25;;;13.60;93.40;;;;;;4996336;28;20064;-51
2021/08/04 04:09:44;;;;;;;8.10;5.72;;;13.60;93.50;;;;;;5014920;28;20121;-51
2021/08/04 04:12:11;;;;;;;8.88;5.18;;;13.60;93.50;;;;;;5015342;28;20108;-52
2021/08/04 04:14:40;;;;;;;8.27;5.55;;;13.50;93.50;;;;;;4998792;28;20076;-53
2021/08/04 04:17:06;;;;;;;7.38;5.38;;;13.50;93.60;;;;;;5016077;28;20089;-51
2021/08/04 04:19:31;;;;;;;10.15;5.43;;;13.50;93.50;;;;;;5017464;28;20065;-52
2021/08/04 04:21:58;;;;;;;8.45;5.10;;;13.50;93.60;;;;;;5014844;28;20091;-55
2021/08/04 04:24:23;;;;;;;6.80;5.22;;;13.50;93.70;;;;;;5016983;28;20041;-52
2021/08/04 04:26:50;;;;;;;10.10;5.35;;;13.50;93.60;;;;;;5013829;28;20046;-50
2021/08/04 04:29:20;;;;;;;7.22;5.28;;;13.60;93.60;;;;;;4970714;28;20043;-53
2021/08/04 04:31:46;;;;;;;7.60;4.90;;;13.50;93.50;;;;;;5015802;28;20044;-50
2021/08/04 04:34:19;;;;;;;8.88;5.47;;;13.50;93.50;;;;;;5016955;28;20038;-53
2021/08/04 04:36:45;;;;;;;7.00;4.75;;;13.50;93.50;;;;;;5017132;28;20501;-52
2021/08/04 04:39:11;;;;;;;7.80;5.32;;;13.50;93.50;;;;;;5019112;28;20041;-54
2021/08/04 04:41:38;;;;;;;9.38;5.30;;;13.40;93.70;;;;;;5018451;28;20046;-51
2021/08/04 04:44:05;;;;;;;8.98;5.30;;;13.50;93.70;;;;;;5016270;28;20046;-54
2021/08/04 04:46:30;;;;;;;8.90;5.35;;;13.50;93.50;;;;;;5016890;28;20506;-50
2021/08/04 04:48:58;;;;;;;7.97;4.90;;;13.50;93.60;;;;;;5009771;28;20057;-55
2021/08/04 04:51:25;;;;;;;9.10;5.22;;;13.50;93.60;;;;;;5001891;28;20072;-56
2021/08/04 04:53:53;;;;;;;8.65;5.32;;;13.50;93.70;;;;;;5017072;28;20116;-55
2021/08/04 04:56:19;;;;;;;7.75;5.25;;;13.50;93.80;;;;;;4999924;28;20100;-54
2021/08/04 04:58:48;;;;;;;8.02;4.82;;;13.60;93.60;;;;;;5017148;28;20049;-54
2021/08/04 05:01:15;;;;;;;8.27;4.80;;;13.60;93.60;;;;;;4973921;28;20041;-55
2021/08/04 05:03:42;;;;;;;6.47;4.50;;;13.60;93.60;;;;;;4981037;28;20046;-53
2021/08/04 05:06:08;;;;;;;10.50;4.80;;;13.60;93.60;;;;;;5005897;28;20404;-54
2021/08/04 05:08:34;;;;;;;8.25;5.28;;;13.60;93.60;;;;;;5016681;28;20526;-54
2021/08/04 05:10:59;;;;;;;8.13;4.80;;;13.60;93.70;;;;;;5014418;28;20061;-54
2021/08/04 05:13:26;;;;;;;7.35;4.97;;;13.60;93.70;;;;;;5014949;28;20518;-53
2021/08/04 05:15:53;;;;;;;7.53;4.70;;;13.60;93.50;;;;;;5014677;28;20048;-53
2021/08/04 05:18:29;;;;;;;7.38;4.45;;;13.70;93.70;;;;;;5018237;28;20042;-51
2021/08/04 05:20:55;;;;;;;9.07;4.28;;;13.70;93.70;;;;;;5017831;28;20050;-54
2021/08/04 05:23:22;;;;;;;7.25;5.00;;;13.70;93.60;;;;;;5018336;28;20148;-54
2021/08/04 05:25:48;;;;;;;10.43;5.22;;;13.70;93.60;;;;;;5002453;28;20585;-54
2021/08/04 05:28:13;;;;;;;8.60;4.97;;;13.80;93.50;;;;;;5011424;28;20133;-54
2021/08/04 05:30:40;;;;;;;9.20;4.47;;;13.80;93.40;;;;;;5011912;28;20132;-52
2021/08/04 05:33:06;;;;;;;8.80;4.93;;;13.90;93.30;;;;;;4996263;28;20038;-53
2021/08/04 05:35:33;;;;;;;8.90;5.03;;;13.90;93.20;;;;;;5016741;28;20049;-51
2021/08/04 05:37:59;;;;;;;7.20;4.82;;;14.00;93.20;;;;;;5017194;28;20045;-53
2021/08/04 05:40:25;;;;;;;10.38;5.05;;;14.00;93.30;;;;;;4994572;28;20097;-53
2021/08/04 05:42:57;;;;;;;8.95;4.82;;;14.00;93.10;;;;;;5018154;28;20057;-55
2021/08/04 05:45:26;;;;;;;7.05;4.78;;;14.00;93.10;;;;;;4999977;28;20057;-55
2021/08/04 05:47:52;;;;;;;6.65;4.65;;;14.10;93.10;;;;;;4998569;28;20057;-55
2021/08/04 05:50:18;;;;;;;6.72;4.85;;;14.10;93.10;;;;;;5018589;28;20053;-53
2021/08/04 05:52:45;;;;;;;6.43;4.40;;;14.10;93.10;;;;;;5015736;28;20042;-50
2021/08/04 05:55:12;;;;;;;6.60;4.82;;;14.20;92.90;;;;;;4986136;28;20073;-52
2021/08/04 05:57:38;;;;;;;6.97;4.00;;;14.30;92.90;;;;;;5017626;28;20042;-53
2021/08/04 06:00:06;;;;;;;7.95;4.40;;;14.40;92.80;;;;;;5018011;28;20121;-54
2021/08/04 06:02:35;;;;;;;7.90;4.47;;;14.50;92.70;;;;;;5015765;28;20092;-56
2021/08/04 06:05:03;;;;;;;7.40;4.30;;;14.50;92.60;;;;;;4956926;28;20045;-55
2021/08/04 06:07:37;;;;;;;7.53;4.22;;;14.60;92.60;;;;;;5014095;28;20041;-56
2021/08/04 06:10:03;;;;;;;6.22;4.47;;;14.70;92.60;;;;;;5013250;28;21586;-54
2021/08/04 06:12:29;;;;;;;6.93;4.05;;;14.80;92.10;;;;;;5008927;28;20395;-53
2021/08/04 06:14:59;;;;;;;6.53;4.30;;;14.80;92.20;;;;;;5013945;28;20053;-55
2021/08/04 06:17:25;;;;;;;6.15;4.05;;;14.90;92.00;;;;;;4986957;28;20046;-50
2021/08/04 06:19:50;;;;;;;9.85;4.53;;;15.20;91.60;;;;;;5002205;28;20487;-54
2021/08/04 06:22:20;;;;;;;6.90;3.70;;;15.60;90.70;;;;;;5012454;28;20390;-52
2021/08/04 06:24:51;;;;;;;6.82;3.88;;;15.80;90.50;;;;;;5000099;28;20098;-55
2021/08/04 06:27:17;;;;;;;7.15;3.90;;;15.80;90.30;;;;;;5014143;28;20056;-51
2021/08/04 06:29:43;;;;;;;5.57;3.80;;;15.70;90.60;;;;;;5011163;28;20038;-55
2021/08/04 06:32:08;;;;;;;6.25;3.90;;;15.70;90.50;;;;;;5010353;28;20064;-52
2021/08/04 06:34:34;;;;;;;6.53;4.30;;;15.70;90.80;;;;;;5015991;28;20042;-53
2021/08/04 06:37:00;;;;;;;5.65;3.40;;;15.70;91.00;;;;;;5015226;28;20042;-52
2021/08/04 06:39:25;;;;;;;5.90;3.45;;;15.70;90.70;;;;;;5015624;28;20041;-55
2021/08/04 06:41:51;;;;;;;8.65;3.80;;;15.80;90.50;;;;;;5014807;28;20045;-52
2021/08/04 06:44:18;;;;;;;5.32;3.20;;;15.80;90.20;;;;;;5005410;28;20042;-49
2021/08/04 06:46:59;;;;;;;6.95;3.50;;;15.80;90.50;;;;;;5013868;28;20049;-53
2021/08/04 06:49:40;;;;;;;4.78;3.20;;;16.00;89.00;;;;;;5016090;28;20049;-52
2021/08/04 06:52:14;;;;;;;5.30;3.40;;;16.00;88.50;;;;;;5006184;28;20108;-53
2021/08/04 06:54:40;;;;;;;4.90;3.03;;;16.10;89.10;;;;;;5012986;28;20049;-52
2021/08/04 06:57:05;;;;;;;6.15;3.10;;;16.10;88.20;;;;;;5017180;28;20402;-55
2021/08/04 06:59:32;;;;;;;5.47;3.25;;;16.20;87.90;;;;;;5014635;28;20201;-54
2021/08/04 07:02:01;;;;;;;5.15;3.10;;;16.20;88.40;;;;;;5012893;28;20045;-55
2021/08/04 07:04:29;;;;;;;4.90;3.15;;;16.30;88.10;;;;;;5014097;28;20065;-52
2021/08/04 07:06:58;;;;;;;5.63;3.15;;;16.30;88.30;;;;;;5014461;28;20046;-52
2021/08/04 07:09:24;;;;;;;6.95;3.22;;;16.30;88.70;;;;;;5016630;28;20069;-50
2021/08/04 07:11:50;;;;;;;5.15;3.40;;;16.30;88.00;;;;;;5015251;28;20049;-53
2021/08/04 07:14:17;;;;;;;7.30;3.70;;;16.50;86.90;;;;;;5015830;28;20049;-55
2021/08/04 07:16:44;;;;;;;5.28;3.38;;;16.50;86.50;;;;;;5010851;28;20050;-54
2021/08/04 07:19:10;;;;;;;6.50;3.60;;;16.60;86.80;;;;;;4998294;28;20065;-54
2021/08/04 07:21:44;;;;;;;5.95;3.88;;;16.60;86.90;;;;;;5014919;28;20064;-53
2021/08/04 07:24:11;;;;;;;5.72;3.80;;;16.70;86.20;;;;;;4997595;28;20038;-55
2021/08/04 07:26:44;;;;;;;8.80;4.38;;;16.70;86.70;;;;;;5015200;28;20372;-56
2021/08/04 07:29:11;;;;;;;5.90;4.13;;;16.70;87.30;;;;;;4992882;28;20041;-56
2021/08/04 07:31:37;;;;;;;6.53;3.65;;;16.80;86.80;;;;;;5008681;28;20041;-56
2021/08/04 07:34:03;;;;;;;6.55;4.30;;;16.90;85.80;;;;;;5012996;28;20044;-54
2021/08/04 07:36:30;;;;;;;7.88;4.50;;;17.00;85.60;;;;;;5013071;28;20129;-55
2021/08/04 07:38:56;;;;;;;7.25;4.20;;;17.10;84.50;;;;;;5008897;28;20144;-53
2021/08/04 07:41:23;;;;;;;5.57;4.00;;;17.10;85.20;;;;;;5012047;28;20073;-54
2021/08/04 07:43:50;;;;;;;7.45;4.30;;;17.10;86.70;;;;;;4993649;28;20054;-53
2021/08/04 07:46:22;;;;;;;6.65;4.25;;;17.20;85.30;;;;;;5006735;28;20510;-53
2021/08/04 07:48:52;;;;;;;7.85;4.13;;;17.30;84.30;;;;;;4992712;28;20083;-55
2021/08/04 07:51:18;;;;;;;7.38;3.83;;;17.30;84.30;;;;;;5008918;28;20052;-55
2021/08/04 07:53:44;;;;;;;6.38;3.70;;;17.30;85.40;;;;;;5007967;28;20139;-54
2021/08/04 07:56:11;;;;;;;10.15;3.97;;;17.30;85.70;;;;;;5009058;28;20405;-54
2021/08/04 07:58:37;;;;;;;5.47;3.60;;;17.40;85.60;;;;;;4995974;28;20073;-55
2021/08/04 08:01:03;;;;;;;6.93;3.63;;;17.50;85.10;;;;;;5010132;28;20034;-55
2021/08/04 08:03:33;;;;;;;6.13;3.55;;;17.60;84.80;;;;;;4978969;28;20046;-52
2021/08/04 08:05:59;;;;;;;7.00;3.50;;;17.60;85.30;;;;;;5014191;28;20045;-56
2021/08/04 08:08:24;;;;;;;5.28;3.45;;;17.70;85.40;;;;;;5014635;28;20458;-53
2021/08/04 08:10:51;;;;;;;6.78;3.70;;;17.80;86.00;;;;;;5016432;28;20514;-53
2021/08/04 08:13:17;;;;;;;5.30;3.25;;;17.90;85.30;;;;;;5015646;28;20060;-53
2021/08/04 08:15:43;;;;;;;5.82;3.80;;;18.00;85.00;;;;;;4990830;28;20188;-55
2021/08/04 08:18:11;;;;;;;6.95;4.03;;;18.00;84.30;;;;;;5013254;28;20100;-54
2021/08/04 08:20:38;;;;;;;6.35;3.53;;;18.20;84.50;;;;;;5016648;28;20045;-55
2021/08/04 08:23:06;;;;;;;5.82;3.75;;;18.20;84.00;;;;;;5012156;28;20046;-53
2021/08/04 08:25:32;;;;;;;4.68;2.92;;;18.30;82.80;;;;;;5011771;28;20096;-55
2021/08/04 08:27:59;;;;;;;7.07;3.40;;;18.40;83.10;;;;;;4994308;28;20054;-55
2021/08/04 08:30:26;;;;;;;5.25;3.15;;;18.50;81.50;;;;;;5009511;28;20054;-55
2021/08/04 08:32:53;;;;;;;4.50;2.88;;;18.50;82.20;;;;;;5014982;28;20551;-54
2021/08/04 08:35:20;;;;;;;5.97;3.60;;;18.50;80.80;;;;;;5017200;28;20502;-52
2021/08/04 08:37:46;;;;;;;4.65;3.20;;;18.60;82.30;;;;;;5013619;28;20125;-49
2021/08/04 08:40:14;;;;;;;5.47;3.20;;;18.70;82.20;;;;;;5013753;28;20167;-52
2021/08/04 08:42:43;;;;;;;4.53;3.10;;;18.80;81.40;;;;;;4989273;28;20045;-51
2021/08/04 08:45:11;;;;;;;4.40;2.70;;;18.90;78.40;;;;;;5010438;28;20041;-51
2021/08/04 08:47:41;;;;;;;4.57;3.10;;;18.90;78.70;;;;;;5015773;28;20046;-54
2021/08/04 08:50:07;;;;;;;5.78;3.03;;;19.00;77.80;;;;;;5014528;28;20049;-55
2021/08/04 08:52:35;;;;;;;9.10;2.75;;;19.00;78.20;;;;;;5014684;28;20049;-53
2021/08/04 08:55:03;;;;;;;4.70;2.90;;;19.10;79.90;;;;;;5013226;28;20072;-55
2021/08/04 08:57:30;;;;;;;4.28;2.92;;;19.20;78.40;;;;;;5014705;28;20125;-54
2021/08/04 08:59:57;;;;;;;4.95;2.60;;;19.30;77.80;;;;;;5015352;28;20034;-52
2021/08/04 09:02:26;;;;;;;4.78;3.10;;;19.30;77.40;;;;;;4969558;28;20046;-52
2021/08/04 09:05:08;;;;;;;6.13;2.60;;;19.50;75.90;;;;;;5010045;28;20491;-51
2021/08/04 09:07:42;;;;;;;4.53;2.75;;;19.50;77.40;;;;;;5008634;28;20046;-53
2021/08/04 09:10:35;;;;;;;4.05;2.80;;;19.50;73.40;;;;;;4976592;28;20069;-55
2021/08/04 09:13:07;;;;;;;4.05;3.05;;;19.50;74.10;;;;;;4988116;28;20054;-53
2021/08/04 09:15:39;;;;;;;4.57;2.88;;;19.50;75.70;;;;;;5013412;28;20153;-54
2021/08/04 09:18:14;;;;;;;5.40;3.22;;;19.40;75.60;;;;;;5014003;28;20038;-55
2021/08/04 09:20:55;;;;;;;5.20;3.40;;;19.50;73.60;;;;;;5014361;28;20050;-52
2021/08/04 09:23:25;;;;;;;4.82;3.03;;;19.50;76.30;;;;;;4998849;28;20054;-55
2021/08/04 09:26:10;;;;;;;5.53;3.10;;;19.50;75.40;;;;;;5014861;28;20433;-53
2021/08/04 09:28:56;;;;;;;4.22;2.92;;;19.60;75.90;;;;;;5007786;28;20117;-53
2021/08/04 09:31:51;;;;;;;4.80;2.80;;;19.60;77.30;;;;;;4996152;28;20053;-52
2021/08/04 09:34:37;;;;;;;5.80;2.72;;;19.80;77.60;;;;;;5013080;28;20049;-53
2021/08/04 09:37:12;;;;;;;4.38;2.83;;;19.90;76.40;;;;;;5012474;28;20112;-56
2021/08/04 09:39:58;;;;;;;4.75;3.08;;;19.80;72.90;;;;;;5010998;28;20054;-52
2021/08/04 09:42:54;;;;;;;6.43;2.70;;;19.70;75.40;;;;;;4993356;28;20060;-55
2021/08/04 09:45:41;;;;;;;4.65;3.25;;;19.70;77.00;;;;;;5005172;28;20184;-56
2021/08/04 09:48:09;;;;;;;4.88;3.00;;;19.80;76.70;;;;;;4998002;28;20080;-56
2021/08/04 09:50:47;;;;;;;4.03;2.80;;;20.00;76.80;;;;;;5007390;28;20483;-57
2021/08/04 09:53:30;;;;;;;5.57;3.17;;;20.20;76.80;;;;;;5006502;28;20120;-55
2021/08/04 09:56:26;;;;;;;5.28;2.95;;;20.30;73.90;;;;;;5010571;28;20038;-54
2021/08/04 09:59:09;;;;;;;5.72;3.08;;;20.30;75.60;;;;;;4977129;28;20042;-52
2021/08/04 10:01:40;;;;;;;4.40;3.08;;;20.40;75.10;;;;;;5009311;28;20050;-55
2021/08/04 10:04:08;;;;;;;5.20;3.63;;;20.50;74.50;;;;;;5010462;28;20042;-55
2021/08/04 10:06:48;;;;;;;4.20;3.30;;;20.60;71.30;;;;;;4994121;28;20429;-55
2021/08/04 10:09:17;;;;;;;5.93;3.15;;;20.40;72.80;;;;;;4960762;28;20458;-55
2021/08/04 10:11:47;;;;;;;4.82;3.00;;;20.30;73.40;;;;;;5010310;28;20053;-56
2021/08/04 10:14:22;;;;;;;5.68;3.15;;;20.30;71.60;;;;;;4960243;28;20056;-57
2021/08/04 10:16:50;;;;;;;4.90;3.10;;;20.30;71.90;;;;;;5004296;28;20038;-56
2021/08/04 10:19:22;;;;;;;4.32;2.67;;;20.30;71.30;;;;;;5013438;28;20128;-58
2021/08/04 10:21:50;;;;;;;4.20;3.03;;;20.30;72.60;;;;;;4995546;28;20089;-59
2021/08/04 10:24:18;;;;;;;5.63;3.00;;;20.40;71.30;;;;;;5012585;28;20050;-58
2021/08/04 10:26:43;;;;;;;4.20;2.85;;;20.40;70.80;;;;;;5011628;28;20088;-59
2021/08/04 10:29:13;;;;;;;3.42;2.58;;;20.50;70.50;;;;;;5011993;28;20041;-59
2021/08/04 10:31:40;;;;;;;5.50;2.22;;;20.60;69.80;;;;;;5006194;28;20432;-56
2021/08/04 10:34:08;;;;;;;4.32;2.45;;;20.60;70.30;;;;;;5014609;28;20026;-57
2021/08/04 10:36:37;;;;;;;6.70;2.88;;;20.50;69.80;;;;;;5007674;28;20517;-56
2021/08/04 10:39:10;;;;;;;3.55;2.35;;;20.50;69.30;;;;;;5011317;28;20048;-54
2021/08/04 10:42:06;;;;;;;3.78;2.63;;;20.60;69.80;;;;;;4996686;28;20048;-51
2021/08/04 10:44:32;;;;;;;4.50;2.70;;;20.70;67.40;;;;;;5009118;28;20517;-49
2021/08/04 10:47:05;;;;;;;4.18;2.90;;;20.60;69.90;;;;;;5011601;28;20042;-56
2021/08/04 10:49:35;;;;;;;6.80;3.30;;;20.60;70.50;;;;;;4995657;28;20125;-55
2021/08/04 10:52:06;;;;;;;5.70;3.10;;;20.70;69.30;;;;;;5011097;28;20046;-52
2021/08/04 10:54:32;;;;;;;4.95;2.83;;;20.80;70.80;;;;;;5011569;28;20042;-55
2021/08/04 10:57:02;;;;;;;4.20;2.33;;;20.90;69.50;;;;;;5011508;28;20046;-53
2021/08/04 10:59:29;;;;;;;5.28;2.90;;;21.10;66.50;;;;;;5008262;28;20049;-56
2021/08/04 11:02:04;;;;;;;5.15;2.88;;;21.10;66.90;;;;;;4988960;28;20034;-52
2021/08/04 11:04:30;;;;;;;5.40;2.92;;;21.00;69.40;;;;;;5008404;28;20172;-52
2021/08/04 11:07:17;;;;;;;6.22;2.90;;;20.90;71.40;;;;;;5010369;28;20100;-52
2021/08/04 11:09:48;;;;;;;4.53;2.75;;;20.90;71.50;;;;;;5004497;28;20069;-57
2021/08/04 11:12:18;;;;;;;4.53;3.10;;;20.70;72.00;;;;;;5011173;28;20050;-52
2021/08/04 11:14:54;;;;;;;5.20;2.88;;;20.60;72.00;;;;;;5009342;28;20128;-53
2021/08/04 11:17:22;;;;;;;4.80;2.85;;;20.60;72.30;;;;;;4993740;28;20411;-50
2021/08/04 11:22:26;;;;;;;4.15;3.25;;;20.50;72.00;;;;;;5011314;28;20065;-54
2021/08/04 11:25:01;;;;;;;5.30;2.75;;;20.60;69.40;;;;;;4994821;28;20124;-57
2021/08/04 11:27:33;;;;;;;5.82;2.92;;;20.60;70.80;;;;;;5013568;28;20084;-53
2021/08/04 11:30:00;;;;;;;6.90;3.10;;;20.70;71.80;;;;;;5010255;28;20035;-50
2021/08/04 11:32:31;;;;;;;5.75;3.40;;;20.70;71.90;;;;;;4956565;28;20038;-51
2021/08/04 11:34:57;;;;;;;8.65;3.08;;;20.70;73.50;;;;;;4995339;28;20045;-53
2021/08/04 11:37:40;;;;;;;6.93;2.72;;;20.70;69.30;;;;;;4993131;28;20073;-49
2021/08/04 11:40:06;;;;;;;2.70;2.40;;;20.80;68.90;;;;;;4989151;28;20038;-53
2021/08/04 11:42:32;;;;;;;3.65;2.78;;;20.70;69.70;;;;;;5003718;28;20145;-54
2021/08/04 11:45:08;;;;;;;4.47;2.60;;;20.60;69.80;;;;;;5008847;28;20069;-53
2021/08/04 11:47:33;;;;;;;3.33;2.58;;;20.50;70.50;;;;;;5011886;28;20064;-52
2021/08/04 11:50:05;;;;;;;3.95;2.63;;;20.50;70.70;;;;;;5013765;28;20042;-49
2021/08/04 11:52:32;;;;;;;6.20;2.97;;;20.40;70.00;;;;;;5007600;28;20070;-52
2021/08/04 11:55:11;;;;;;;4.22;2.75;;;20.30;70.20;;;;;;5010713;28;20069;-57
2021/08/04 11:57:46;;;;;;;4.85;2.38;;;20.20;71.40;;;;;;5011357;28;20038;-57
2021/08/04 12:00:19;;;;;;;2.80;2.10;;;20.10;72.00;;;;;;5005799;28;20051;-56
2021/08/04 12:02:47;;;;;;;5.32;2.80;;;20.10;70.60;;;;;;5003381;28;20118;-55
2021/08/04 12:05:18;;;;;;;4.50;2.60;;;19.90;72.10;;;;;;4994675;28;20042;-55
2021/08/04 12:08:26;;;;;;;3.40;2.53;;;19.90;70.50;;;;;;5014061;28;20513;-52
2021/08/04 12:10:51;;;;;;;3.13;2.10;;;19.90;71.90;;;;;;5010560;28;20391;-55
2021/08/04 12:13:17;;;;;;;5.32;2.38;;;19.80;72.20;;;;;;5012260;28;20049;-55
2021/08/04 12:15:42;;;;;;;3.60;2.35;;;19.70;72.90;;;;;;5011055;28;20045;-55
2021/08/04 12:18:08;;;;;;;2.95;2.20;;;19.70;73.30;;;;;;5011891;28;20101;-52
2021/08/04 12:20:37;;;;;;;2.70;2.03;;;19.70;72.70;;;;;;5011862;28;20045;-56
2021/08/04 12:23:12;;;;;;;4.20;2.20;;;19.70;71.00;;;;;;5011523;28;20092;-55
2021/08/04 12:25:40;;;;;;;6.55;2.75;;;19.70;71.60;;;;;;5011054;28;20046;-54
2021/08/04 12:28:08;;;;;;;5.55;2.13;;;19.70;72.30;;;;;;5011822;28;20077;-55
2021/08/04 12:30:40;;;;;;;2.95;2.15;;;19.70;72.70;;;;;;5005145;28;20042;-57
2021/08/04 12:33:23;;;;;;;4.72;2.25;;;19.70;72.20;;;;;;5012556;28;20030;-52
2021/08/04 12:36:04;;;;;;;3.00;2.05;;;19.70;72.20;;;;;;5010480;28;20041;-50
2021/08/04 12:38:43;;;;;;;4.57;2.38;;;19.80;72.70;;;;;;4999761;28;20042;-53
2021/08/04 12:41:10;;;;;;;3.53;2.22;;;19.90;72.80;;;;;;5010999;28;20478;-53
2021/08/04 12:43:54;;;;;;;4.32;2.50;;;20.00;73.00;;;;;;5011900;28;20049;-55
2021/08/04 12:46:26;;;;;;;2.92;2.10;;;20.30;71.00;;;;;;5010518;28;20093;-54
2021/08/04 12:49:28;;;;;;;3.58;2.10;;;20.50;71.20;;;;;;5011945;28;20046;-56
2021/08/04 12:52:06;;;;;;;3.50;2.30;;;20.90;67.40;;;;;;5000644;28;20100;-55
2021/08/04 12:54:34;;;;;;;2.53;2.08;;;21.10;66.20;;;;;;4997471;28;20409;-52
2021/08/04 12:57:00;;;;;;;3.55;2.13;;;21.10;67.30;;;;;;5015787;28;20566;-54
2021/08/04 12:59:43;;;;;;;3.22;2.10;;;21.00;67.80;;;;;;5014175;28;20034;-54
2021/08/04 13:02:12;;;;;;;2.50;1.90;;;20.90;68.00;;;;;;5005838;28;20079;-53
2021/08/04 13:04:41;;;;;;;4.47;2.13;;;21.00;67.60;;;;;;5015147;28;20133;-53